sensor_id;sensor_type;location;lat;lon;timestamp;temperature;humidity
20973;DHT22;10645;52.370;13.314;2024-02-26T00:00:41;-0.60;99.90
20973;DHT22;10645;52.370;13.314;2024-02-26T00:03:08;-0.60;99.90
20973;DHT22;10645;52.370;13.314;2024-02-26T00:05:34;-0.50;99.90
20973;DHT22;10645;52.370;13.314;2024-02-26T00:08:00;-0.50;99.90
20973;DHT22;10645;52.370;13.314;2024-02-26T00:10:26;-0.50;99.90
20973;DHT22;10645;52.370;13.314;2024-02-26T00:12:52;-0.60;99.90
20973;DHT22;10645;52.370;13.314;2024-02-26T00:15:18;-0.60;99.90
20973;DHT22;10645;52.370;13.314;2024-02-26T00:17:44;-0.60;99.90
20973;DHT22;10645;52.370;13.314;2024-02-26T00:20:11;-0.60;99.90
20973;DHT22;10645;52.370;13.314;2024-02-26T00:22:37;-0.70;99.90
20973;DHT22;10645;52.370;13.314;2024-02-26T00:25:04;-0.70;99.90
20973;DHT22;10645;52.370;13.314;2024-02-26T00:27:30;-0.80;99.90
20973;DHT22;10645;52.370;13.314;2024-02-26T00:29:56;-0.80;99.90
20973;DHT22;10645;52.370;13.314;2024-02-26T00:32:23;-0.80;99.90
20973;DHT22;10645;52.370;13.314;2024-02-26T00:34:49;-0.90;99.90
20973;DHT22;10645;52.370;13.314;2024-02-26T00:37:16;-0.90;99.90
20973;DHT22;10645;52.370;13.314;2024-02-26T00:39:42;-0.90;99.90
20973;DHT22;10645;52.370;13.314;2024-02-26T00:42:08;-0.90;99.90
20973;DHT22;10645;52.370;13.314;2024-02-26T00:44:34;-0.90;99.90
20973;DHT22;10645;52.370;13.314;2024-02-26T00:47:01;-0.90;99.90
20973;DHT22;10645;52.370;13.314;2024-02-26T00:49:27;-1.00;99.90
20973;DHT22;10645;52.370;13.314;2024-02-26T00:51:53;-1.00;99.90
20973;DHT22;10645;52.370;13.314;2024-02-26T00:54:19;-1.00;99.90
20973;DHT22;10645;52.370;13.314;2024-02-26T00:56:46;-1.10;99.90
20973;DHT22;10645;52.370;13.314;2024-02-26T00:59:12;-1.10;99.90
20973;DHT22;10645;52.370;13.314;2024-02-26T01:01:38;-1.20;99.90
20973;DHT22;10645;52.370;13.314;2024-02-26T01:04:04;-1.20;99.90
20973;DHT22;10645;52.370;13.314;2024-02-26T01:06:30;-1.30;99.90
20973;DHT22;10645;52.370;13.314;2024-02-26T01:08:56;-1.40;99.90
20973;DHT22;10645;52.370;13.314;2024-02-26T01:11:23;-1.40;99.90
20973;DHT22;10645;52.370;13.314;2024-02-26T01:13:49;-1.40;99.90
20973;DHT22;10645;52.370;13.314;2024-02-26T01:16:19;-1.40;99.90
20973;DHT22;10645;52.370;13.314;2024-02-26T01:18:45;-1.40;99.90
20973;DHT22;10645;52.370;13.314;2024-02-26T01:21:11;-1.30;99.90
20973;DHT22;10645;52.370;13.314;2024-02-26T01:23:37;-1.30;99.90
20973;DHT22;10645;52.370;13.314;2024-02-26T01:26:03;-1.30;99.90
20973;DHT22;10645;52.370;13.314;2024-02-26T01:28:30;-1.30;99.90
20973;DHT22;10645;52.370;13.314;2024-02-26T01:30:56;-1.30;99.90
20973;DHT22;10645;52.370;13.314;2024-02-26T01:33:22;-1.40;99.90
20973;DHT22;10645;52.370;13.314;2024-02-26T01:35:48;-1.50;99.90
20973;DHT22;10645;52.370;13.314;2024-02-26T01:38:15;-1.50;99.90
20973;DHT22;10645;52.370;13.314;2024-02-26T01:40:41;-1.50;99.90
20973;DHT22;10645;52.370;13.314;2024-02-26T01:43:07;-1.50;99.90
20973;DHT22;10645;52.370;13.314;2024-02-26T01:45:33;-1.60;99.90
20973;DHT22;10645;52.370;13.314;2024-02-26T01:47:59;-1.60;99.90
20973;DHT22;10645;52.370;13.314;2024-02-26T01:50:26;-1.60;99.90
20973;DHT22;10645;52.370;13.314;2024-02-26T01:52:54;-1.60;99.90
20973;DHT22;10645;52.370;13.314;2024-02-26T01:55:20;-1.60;99.90
20973;DHT22;10645;52.370;13.314;2024-02-26T01:57:49;-1.60;99.90
20973;DHT22;10645;52.370;13.314;2024-02-26T02:00:18;-1.70;99.90
20973;DHT22;10645;52.370;13.314;2024-02-26T02:02:45;-1.60;99.90
20973;DHT22;10645;52.370;13.314;2024-02-26T02:05:15;-1.70;99.90
20973;DHT22;10645;52.370;13.314;2024-02-26T02:07:43;-1.70;99.90
20973;DHT22;10645;52.370;13.314;2024-02-26T02:10:09;-1.70;99.90
20973;DHT22;10645;52.370;13.314;2024-02-26T02:12:36;-1.80;99.90
20973;DHT22;10645;52.370;13.314;2024-02-26T02:15:04;-1.80;99.90
20973;DHT22;10645;52.370;13.314;2024-02-26T02:17:31;-1.80;99.90
20973;DHT22;10645;52.370;13.314;2024-02-26T02:19:57;-1.80;99.90
20973;DHT22;10645;52.370;13.314;2024-02-26T02:22:23;-1.80;99.90
20973;DHT22;10645;52.370;13.314;2024-02-26T02:24:51;-1.90;99.90
20973;DHT22;10645;52.370;13.314;2024-02-26T02:27:17;-1.90;99.90
20973;DHT22;10645;52.370;13.314;2024-02-26T02:29:44;-1.90;99.90
20973;DHT22;10645;52.370;13.314;2024-02-26T02:32:10;-1.90;99.90
20973;DHT22;10645;52.370;13.314;2024-02-26T02:34:36;-1.90;99.90
20973;DHT22;10645;52.370;13.314;2024-02-26T02:37:02;-1.90;99.90
20973;DHT22;10645;52.370;13.314;2024-02-26T02:39:28;-2.00;99.90
20973;DHT22;10645;52.370;13.314;2024-02-26T02:41:54;-2.00;99.90
20973;DHT22;10645;52.370;13.314;2024-02-26T02:44:20;-2.10;99.90
20973;DHT22;10645;52.370;13.314;2024-02-26T02:46:46;-2.10;99.90
20973;DHT22;10645;52.370;13.314;2024-02-26T02:49:13;-2.10;99.90
20973;DHT22;10645;52.370;13.314;2024-02-26T02:51:40;-2.10;99.90
20973;DHT22;10645;52.370;13.314;2024-02-26T02:54:06;-2.10;99.90
20973;DHT22;10645;52.370;13.314;2024-02-26T02:56:32;-2.00;99.90
20973;DHT22;10645;52.370;13.314;2024-02-26T02:58:58;-2.00;99.90
20973;DHT22;10645;52.370;13.314;2024-02-26T03:01:24;-1.90;99.90
20973;DHT22;10645;52.370;13.314;2024-02-26T03:03:50;-1.80;99.90
20973;DHT22;10645;52.370;13.314;2024-02-26T03:06:17;-1.60;99.90
20973;DHT22;10645;52.370;13.314;2024-02-26T03:08:43;-1.50;99.90
20973;DHT22;10645;52.370;13.314;2024-02-26T03:11:13;-1.60;99.90
20973;DHT22;10645;52.370;13.314;2024-02-26T03:13:39;-1.50;99.90
20973;DHT22;10645;52.370;13.314;2024-02-26T03:16:06;-1.50;99.90
20973;DHT22;10645;52.370;13.314;2024-02-26T03:18:32;-1.50;99.90
20973;DHT22;10645;52.370;13.314;2024-02-26T03:20:58;-1.50;99.90
20973;DHT22;10645;52.370;13.314;2024-02-26T03:23:24;-1.50;99.90
20973;DHT22;10645;52.370;13.314;2024-02-26T03:25:50;-1.50;99.90
20973;DHT22;10645;52.370;13.314;2024-02-26T03:28:16;-1.30;99.90
20973;DHT22;10645;52.370;13.314;2024-02-26T03:30:42;-1.30;99.90
20973;DHT22;10645;52.370;13.314;2024-02-26T03:33:09;-1.20;99.90
20973;DHT22;10645;52.370;13.314;2024-02-26T03:35:35;-1.10;99.90
20973;DHT22;10645;52.370;13.314;2024-02-26T03:38:01;-1.10;99.90
20973;DHT22;10645;52.370;13.314;2024-02-26T03:40:28;-1.10;99.90
20973;DHT22;10645;52.370;13.314;2024-02-26T03:42:54;-1.10;99.90
20973;DHT22;10645;52.370;13.314;2024-02-26T03:45:20;-1.00;99.90
20973;DHT22;10645;52.370;13.314;2024-02-26T03:47:46;-1.00;99.90
20973;DHT22;10645;52.370;13.314;2024-02-26T03:50:12;-1.10;99.90
20973;DHT22;10645;52.370;13.314;2024-02-26T03:52:38;-1.10;99.90
20973;DHT22;10645;52.370;13.314;2024-02-26T03:55:05;-1.10;99.90
20973;DHT22;10645;52.370;13.314;2024-02-26T03:57:31;-1.10;99.90
20973;DHT22;10645;52.370;13.314;2024-02-26T03:59:57;-1.10;99.90
20973;DHT22;10645;52.370;13.314;2024-02-26T04:02:23;-1.10;99.90
20973;DHT22;10645;52.370;13.314;2024-02-26T04:04:49;-1.10;99.90
20973;DHT22;10645;52.370;13.314;2024-02-26T04:07:15;-1.10;99.90
20973;DHT22;10645;52.370;13.314;2024-02-26T04:09:42;-1.20;99.90
20973;DHT22;10645;52.370;13.314;2024-02-26T04:12:09;-1.20;99.90
20973;DHT22;10645;52.370;13.314;2024-02-26T04:14:36;-1.10;99.90
20973;DHT22;10645;52.370;13.314;2024-02-26T04:17:02;-0.90;99.90
20973;DHT22;10645;52.370;13.314;2024-02-26T04:19:28;-0.70;99.90
20973;DHT22;10645;52.370;13.314;2024-02-26T04:21:55;-0.50;99.90
20973;DHT22;10645;52.370;13.314;2024-02-26T04:24:21;-0.40;99.90
20973;DHT22;10645;52.370;13.314;2024-02-26T04:26:47;-0.40;99.90
20973;DHT22;10645;52.370;13.314;2024-02-26T04:29:16;-0.40;99.90
20973;DHT22;10645;52.370;13.314;2024-02-26T04:31:42;-0.30;99.90
20973;DHT22;10645;52.370;13.314;2024-02-26T04:34:08;-0.20;99.90
20973;DHT22;10645;52.370;13.314;2024-02-26T04:36:34;-0.20;99.90
20973;DHT22;10645;52.370;13.314;2024-02-26T04:39:00;-0.20;99.90
20973;DHT22;10645;52.370;13.314;2024-02-26T04:41:27;-0.30;99.90
20973;DHT22;10645;52.370;13.314;2024-02-26T04:43:53;-0.40;99.90
20973;DHT22;10645;52.370;13.314;2024-02-26T04:46:19;-0.50;99.90
20973;DHT22;10645;52.370;13.314;2024-02-26T04:48:45;-0.60;99.90
20973;DHT22;10645;52.370;13.314;2024-02-26T04:51:12;-0.60;99.90
20973;DHT22;10645;52.370;13.314;2024-02-26T04:53:38;-0.50;99.90
20973;DHT22;10645;52.370;13.314;2024-02-26T04:56:04;-0.50;99.90
20973;DHT22;10645;52.370;13.314;2024-02-26T04:58:31;-0.40;99.90
20973;DHT22;10645;52.370;13.314;2024-02-26T05:00:57;-0.30;99.90
20973;DHT22;10645;52.370;13.314;2024-02-26T05:03:23;-0.20;99.90
20973;DHT22;10645;52.370;13.314;2024-02-26T05:05:49;-0.20;99.90
20973;DHT22;10645;52.370;13.314;2024-02-26T05:08:15;-0.10;99.90
20973;DHT22;10645;52.370;13.314;2024-02-26T05:10:41;-0.10;99.90
20973;DHT22;10645;52.370;13.314;2024-02-26T05:13:09;-0.20;99.90
20973;DHT22;10645;52.370;13.314;2024-02-26T05:15:35;-0.20;99.90
20973;DHT22;10645;52.370;13.314;2024-02-26T05:18:02;-0.20;99.90
20973;DHT22;10645;52.370;13.314;2024-02-26T05:20:28;-0.20;99.90
20973;DHT22;10645;52.370;13.314;2024-02-26T05:22:55;-0.20;99.90
20973;DHT22;10645;52.370;13.314;2024-02-26T05:25:21;-0.30;99.90
20973;DHT22;10645;52.370;13.314;2024-02-26T05:27:47;-0.40;99.90
20973;DHT22;10645;52.370;13.314;2024-02-26T05:30:14;-0.50;99.90
20973;DHT22;10645;52.370;13.314;2024-02-26T05:32:40;-0.60;99.90
20973;DHT22;10645;52.370;13.314;2024-02-26T05:35:07;-0.50;99.90
20973;DHT22;10645;52.370;13.314;2024-02-26T05:37:33;-0.50;99.90
20973;DHT22;10645;52.370;13.314;2024-02-26T05:39:59;-0.40;99.90
20973;DHT22;10645;52.370;13.314;2024-02-26T05:42:25;-0.40;99.90
20973;DHT22;10645;52.370;13.314;2024-02-26T05:44:51;-0.40;99.90
20973;DHT22;10645;52.370;13.314;2024-02-26T05:47:17;-0.30;99.90
20973;DHT22;10645;52.370;13.314;2024-02-26T05:49:44;-0.30;99.90
20973;DHT22;10645;52.370;13.314;2024-02-26T05:52:10;-0.30;99.90
20973;DHT22;10645;52.370;13.314;2024-02-26T05:54:36;-0.30;99.90
20973;DHT22;10645;52.370;13.314;2024-02-26T05:57:02;-0.30;99.90
20973;DHT22;10645;52.370;13.314;2024-02-26T05:59:28;-0.40;99.90
20973;DHT22;10645;52.370;13.314;2024-02-26T06:01:54;-0.30;99.90
20973;DHT22;10645;52.370;13.314;2024-02-26T06:04:20;-0.40;99.90
20973;DHT22;10645;52.370;13.314;2024-02-26T06:06:46;-0.30;99.90
20973;DHT22;10645;52.370;13.314;2024-02-26T06:09:12;-0.30;99.90
20973;DHT22;10645;52.370;13.314;2024-02-26T06:11:38;-0.20;99.90
20973;DHT22;10645;52.370;13.314;2024-02-26T06:14:05;-0.10;99.90
20973;DHT22;10645;52.370;13.314;2024-02-26T06:16:31;0.00;99.90
20973;DHT22;10645;52.370;13.314;2024-02-26T06:18:57;0.00;99.90
20973;DHT22;10645;52.370;13.314;2024-02-26T06:21:24;0.10;99.90
20973;DHT22;10645;52.370;13.314;2024-02-26T06:23:50;0.20;99.90
20973;DHT22;10645;52.370;13.314;2024-02-26T06:26:16;0.20;99.90
20973;DHT22;10645;52.370;13.314;2024-02-26T06:28:42;0.20;99.90
20973;DHT22;10645;52.370;13.314;2024-02-26T06:31:08;0.20;99.90
20973;DHT22;10645;52.370;13.314;2024-02-26T06:33:34;0.30;99.90
20973;DHT22;10645;52.370;13.314;2024-02-26T06:36:01;0.30;99.90
20973;DHT22;10645;52.370;13.314;2024-02-26T06:38:27;0.40;99.90
20973;DHT22;10645;52.370;13.314;2024-02-26T06:40:53;0.40;99.90
20973;DHT22;10645;52.370;13.314;2024-02-26T06:43:19;0.50;99.90
20973;DHT22;10645;52.370;13.314;2024-02-26T06:45:45;0.60;99.90
20973;DHT22;10645;52.370;13.314;2024-02-26T06:48:11;0.70;99.90
20973;DHT22;10645;52.370;13.314;2024-02-26T06:50:37;0.80;99.90
20973;DHT22;10645;52.370;13.314;2024-02-26T06:53:03;0.90;99.90
20973;DHT22;10645;52.370;13.314;2024-02-26T06:55:36;1.00;99.90
20973;DHT22;10645;52.370;13.314;2024-02-26T06:58:06;1.10;99.90
20973;DHT22;10645;52.370;13.314;2024-02-26T07:00:32;1.10;99.90
20973;DHT22;10645;52.370;13.314;2024-02-26T07:02:58;1.20;99.90
20973;DHT22;10645;52.370;13.314;2024-02-26T07:05:24;1.30;99.90
20973;DHT22;10645;52.370;13.314;2024-02-26T07:07:50;1.30;99.90
20973;DHT22;10645;52.370;13.314;2024-02-26T07:10:16;1.50;99.90
20973;DHT22;10645;52.370;13.314;2024-02-26T07:12:43;1.60;99.90
20973;DHT22;10645;52.370;13.314;2024-02-26T07:15:09;1.70;99.90
20973;DHT22;10645;52.370;13.314;2024-02-26T07:17:35;1.80;99.90
20973;DHT22;10645;52.370;13.314;2024-02-26T07:20:02;1.80;99.90
20973;DHT22;10645;52.370;13.314;2024-02-26T07:22:30;2.00;99.90
20973;DHT22;10645;52.370;13.314;2024-02-26T07:24:57;2.00;99.90
20973;DHT22;10645;52.370;13.314;2024-02-26T07:27:23;2.20;99.90
20973;DHT22;10645;52.370;13.314;2024-02-26T07:29:49;2.30;99.90
20973;DHT22;10645;52.370;13.314;2024-02-26T07:32:15;2.30;99.90
20973;DHT22;10645;52.370;13.314;2024-02-26T07:34:41;2.40;99.90
20973;DHT22;10645;52.370;13.314;2024-02-26T07:37:08;2.50;99.90
20973;DHT22;10645;52.370;13.314;2024-02-26T07:39:34;2.60;99.90
20973;DHT22;10645;52.370;13.314;2024-02-26T07:42:00;2.70;99.90
20973;DHT22;10645;52.370;13.314;2024-02-26T07:44:26;2.80;99.90
20973;DHT22;10645;52.370;13.314;2024-02-26T07:46:52;2.90;99.90
20973;DHT22;10645;52.370;13.314;2024-02-26T07:49:18;3.10;99.90
20973;DHT22;10645;52.370;13.314;2024-02-26T07:51:44;3.10;99.90
20973;DHT22;10645;52.370;13.314;2024-02-26T07:54:10;3.20;99.90
20973;DHT22;10645;52.370;13.314;2024-02-26T07:56:37;3.40;99.90
20973;DHT22;10645;52.370;13.314;2024-02-26T07:59:03;3.50;99.90
20973;DHT22;10645;52.370;13.314;2024-02-26T08:01:29;3.50;99.90
20973;DHT22;10645;52.370;13.314;2024-02-26T08:03:55;3.60;99.90
20973;DHT22;10645;52.370;13.314;2024-02-26T08:06:22;3.70;99.90
20973;DHT22;10645;52.370;13.314;2024-02-26T08:08:54;3.80;99.90
20973;DHT22;10645;52.370;13.314;2024-02-26T08:11:20;3.90;99.90
20973;DHT22;10645;52.370;13.314;2024-02-26T08:13:46;3.90;99.90
20973;DHT22;10645;52.370;13.314;2024-02-26T08:16:12;4.00;99.90
20973;DHT22;10645;52.370;13.314;2024-02-26T08:18:38;4.10;99.90
20973;DHT22;10645;52.370;13.314;2024-02-26T08:21:04;4.20;99.90
20973;DHT22;10645;52.370;13.314;2024-02-26T08:23:30;4.30;99.90
20973;DHT22;10645;52.370;13.314;2024-02-26T08:25:57;4.50;99.90
20973;DHT22;10645;52.370;13.314;2024-02-26T08:28:23;4.70;99.90
20973;DHT22;10645;52.370;13.314;2024-02-26T08:30:50;4.80;99.90
20973;DHT22;10645;52.370;13.314;2024-02-26T08:33:16;4.90;99.90
20973;DHT22;10645;52.370;13.314;2024-02-26T08:35:42;5.00;99.90
20973;DHT22;10645;52.370;13.314;2024-02-26T08:38:09;5.10;99.90
20973;DHT22;10645;52.370;13.314;2024-02-26T08:40:35;5.40;99.90
20973;DHT22;10645;52.370;13.314;2024-02-26T08:43:01;5.50;99.90
20973;DHT22;10645;52.370;13.314;2024-02-26T08:45:27;5.70;99.90
20973;DHT22;10645;52.370;13.314;2024-02-26T08:47:53;5.90;99.90
20973;DHT22;10645;52.370;13.314;2024-02-26T08:50:19;6.10;99.90
20973;DHT22;10645;52.370;13.314;2024-02-26T08:52:45;6.20;99.90
20973;DHT22;10645;52.370;13.314;2024-02-26T08:55:14;6.40;99.90
20973;DHT22;10645;52.370;13.314;2024-02-26T08:57:40;6.70;99.90
20973;DHT22;10645;52.370;13.314;2024-02-26T09:00:07;6.80;99.90
20973;DHT22;10645;52.370;13.314;2024-02-26T09:02:33;6.90;99.90
20973;DHT22;10645;52.370;13.314;2024-02-26T09:04:59;7.00;99.90
20973;DHT22;10645;52.370;13.314;2024-02-26T09:07:25;6.90;99.90
20973;DHT22;10645;52.370;13.314;2024-02-26T09:09:51;6.90;99.90
20973;DHT22;10645;52.370;13.314;2024-02-26T09:12:17;6.80;99.90
20973;DHT22;10645;52.370;13.314;2024-02-26T09:14:43;6.80;99.90
20973;DHT22;10645;52.370;13.314;2024-02-26T09:17:09;6.80;99.90
20973;DHT22;10645;52.370;13.314;2024-02-26T09:19:35;6.80;99.90
20973;DHT22;10645;52.370;13.314;2024-02-26T09:22:01;7.00;99.90
20973;DHT22;10645;52.370;13.314;2024-02-26T09:24:27;7.20;99.90
20973;DHT22;10645;52.370;13.314;2024-02-26T09:26:54;7.40;99.90
20973;DHT22;10645;52.370;13.314;2024-02-26T09:29:20;7.50;99.90
20973;DHT22;10645;52.370;13.314;2024-02-26T09:31:46;7.50;99.90
20973;DHT22;10645;52.370;13.314;2024-02-26T09:34:13;7.60;99.90
20973;DHT22;10645;52.370;13.314;2024-02-26T09:36:39;7.70;99.90
20973;DHT22;10645;52.370;13.314;2024-02-26T09:39:05;7.80;99.90
20973;DHT22;10645;52.370;13.314;2024-02-26T09:41:34;8.00;99.90
20973;DHT22;10645;52.370;13.314;2024-02-26T09:44:02;8.20;99.90
20973;DHT22;10645;52.370;13.314;2024-02-26T09:46:30;8.30;99.90
20973;DHT22;10645;52.370;13.314;2024-02-26T09:48:57;8.30;99.90
20973;DHT22;10645;52.370;13.314;2024-02-26T09:51:23;8.40;99.90
20973;DHT22;10645;52.370;13.314;2024-02-26T09:53:52;8.40;99.90
20973;DHT22;10645;52.370;13.314;2024-02-26T09:56:19;8.50;99.90
20973;DHT22;10645;52.370;13.314;2024-02-26T09:58:45;8.60;99.90
20973;DHT22;10645;52.370;13.314;2024-02-26T10:01:18;8.80;99.90
20973;DHT22;10645;52.370;13.314;2024-02-26T10:03:44;9.00;99.90
20973;DHT22;10645;52.370;13.314;2024-02-26T10:06:14;9.10;99.90
20973;DHT22;10645;52.370;13.314;2024-02-26T10:08:40;9.20;99.90
20973;DHT22;10645;52.370;13.314;2024-02-26T10:11:07;9.30;99.90
20973;DHT22;10645;52.370;13.314;2024-02-26T10:13:36;9.40;99.90
20973;DHT22;10645;52.370;13.314;2024-02-26T10:16:03;9.30;99.90
20973;DHT22;10645;52.370;13.314;2024-02-26T10:18:52;9.40;99.90
20973;DHT22;10645;52.370;13.314;2024-02-26T10:21:22;9.40;99.90
20973;DHT22;10645;52.370;13.314;2024-02-26T10:23:49;9.50;99.90
20973;DHT22;10645;52.370;13.314;2024-02-26T10:26:16;9.50;99.90
20973;DHT22;10645;52.370;13.314;2024-02-26T10:28:44;9.60;99.90
20973;DHT22;10645;52.370;13.314;2024-02-26T10:31:11;9.90;99.90
20973;DHT22;10645;52.370;13.314;2024-02-26T10:33:38;10.00;99.90
20973;DHT22;10645;52.370;13.314;2024-02-26T10:36:05;10.00;99.90
20973;DHT22;10645;52.370;13.314;2024-02-26T10:38:35;10.00;99.90
20973;DHT22;10645;52.370;13.314;2024-02-26T10:41:03;10.20;99.90
20973;DHT22;10645;52.370;13.314;2024-02-26T10:43:29;10.30;99.90
20973;DHT22;10645;52.370;13.314;2024-02-26T10:45:56;10.50;99.90
20973;DHT22;10645;52.370;13.314;2024-02-26T10:48:22;10.60;99.90
20973;DHT22;10645;52.370;13.314;2024-02-26T10:50:48;10.60;99.90
20973;DHT22;10645;52.370;13.314;2024-02-26T10:53:20;10.70;99.90
20973;DHT22;10645;52.370;13.314;2024-02-26T10:56:03;10.70;99.90
20973;DHT22;10645;52.370;13.314;2024-02-26T10:58:31;11.00;99.90
20973;DHT22;10645;52.370;13.314;2024-02-26T11:00:58;11.00;99.90
20973;DHT22;10645;52.370;13.314;2024-02-26T11:03:25;11.10;99.90
20973;DHT22;10645;52.370;13.314;2024-02-26T11:05:52;11.10;99.90
20973;DHT22;10645;52.370;13.314;2024-02-26T11:08:19;11.30;99.90
20973;DHT22;10645;52.370;13.314;2024-02-26T11:10:53;11.40;99.90
20973;DHT22;10645;52.370;13.314;2024-02-26T11:13:21;11.50;99.90
20973;DHT22;10645;52.370;13.314;2024-02-26T11:15:48;11.50;99.90
20973;DHT22;10645;52.370;13.314;2024-02-26T11:18:19;11.50;99.90
20973;DHT22;10645;52.370;13.314;2024-02-26T11:20:48;11.60;99.90
20973;DHT22;10645;52.370;13.314;2024-02-26T11:23:15;11.70;99.90
20973;DHT22;10645;52.370;13.314;2024-02-26T11:25:41;11.60;99.90
20973;DHT22;10645;52.370;13.314;2024-02-26T11:28:13;11.60;99.90
20973;DHT22;10645;52.370;13.314;2024-02-26T11:30:43;11.70;99.90
20973;DHT22;10645;52.370;13.314;2024-02-26T11:33:10;11.80;99.90
20973;DHT22;10645;52.370;13.314;2024-02-26T11:35:38;12.00;99.90
20973;DHT22;10645;52.370;13.314;2024-02-26T11:38:06;12.10;99.90
20973;DHT22;10645;52.370;13.314;2024-02-26T11:40:37;12.20;99.90
20973;DHT22;10645;52.370;13.314;2024-02-26T11:43:05;12.30;99.90
20973;DHT22;10645;52.370;13.314;2024-02-26T11:48:15;12.30;99.90
20973;DHT22;10645;52.370;13.314;2024-02-26T11:50:48;12.10;99.90
20973;DHT22;10645;52.370;13.314;2024-02-26T11:53:30;12.00;99.90
20973;DHT22;10645;52.370;13.314;2024-02-26T11:58:40;11.80;99.90
20973;DHT22;10645;52.370;13.314;2024-02-26T12:01:35;12.00;99.90
20973;DHT22;10645;52.370;13.314;2024-02-26T12:04:06;12.00;99.90
20973;DHT22;10645;52.370;13.314;2024-02-26T12:06:44;12.20;99.90
20973;DHT22;10645;52.370;13.314;2024-02-26T12:09:10;12.30;99.90
20973;DHT22;10645;52.370;13.314;2024-02-26T12:11:41;12.30;99.90
20973;DHT22;10645;52.370;13.314;2024-02-26T12:14:09;12.40;99.90
20973;DHT22;10645;52.370;13.314;2024-02-26T12:16:36;12.30;99.90
20973;DHT22;10645;52.370;13.314;2024-02-26T12:19:07;12.40;99.90
20973;DHT22;10645;52.370;13.314;2024-02-26T12:21:35;12.40;99.90
20973;DHT22;10645;52.370;13.314;2024-02-26T12:24:14;12.10;99.90
20973;DHT22;10645;52.370;13.314;2024-02-26T12:26:41;12.00;99.90
20973;DHT22;10645;52.370;13.314;2024-02-26T12:29:08;11.90;99.90
20973;DHT22;10645;52.370;13.314;2024-02-26T12:31:35;11.90;99.90
20973;DHT22;10645;52.370;13.314;2024-02-26T12:34:04;12.00;99.90
20973;DHT22;10645;52.370;13.314;2024-02-26T12:36:31;12.10;99.90
20973;DHT22;10645;52.370;13.314;2024-02-26T12:38:58;12.10;99.90
20973;DHT22;10645;52.370;13.314;2024-02-26T12:41:26;12.20;99.90
20973;DHT22;10645;52.370;13.314;2024-02-26T12:43:53;12.20;99.90
20973;DHT22;10645;52.370;13.314;2024-02-26T12:46:20;12.00;99.90
20973;DHT22;10645;52.370;13.314;2024-02-26T12:48:46;12.00;99.90
20973;DHT22;10645;52.370;13.314;2024-02-26T12:51:14;12.10;99.90
20973;DHT22;10645;52.370;13.314;2024-02-26T12:53:41;12.30;99.90
20973;DHT22;10645;52.370;13.314;2024-02-26T12:56:08;12.50;99.90
20973;DHT22;10645;52.370;13.314;2024-02-26T12:58:36;12.40;99.90
20973;DHT22;10645;52.370;13.314;2024-02-26T13:01:04;12.30;99.90
20973;DHT22;10645;52.370;13.314;2024-02-26T13:03:32;12.40;99.90
20973;DHT22;10645;52.370;13.314;2024-02-26T13:06:00;12.30;99.90
20973;DHT22;10645;52.370;13.314;2024-02-26T13:08:27;12.20;99.90
20973;DHT22;10645;52.370;13.314;2024-02-26T13:10:53;12.00;99.90
20973;DHT22;10645;52.370;13.314;2024-02-26T13:13:20;11.90;99.90
20973;DHT22;10645;52.370;13.314;2024-02-26T13:15:46;11.90;99.90
20973;DHT22;10645;52.370;13.314;2024-02-26T13:18:15;12.00;99.90
20973;DHT22;10645;52.370;13.314;2024-02-26T13:20:42;12.00;99.90
20973;DHT22;10645;52.370;13.314;2024-02-26T13:23:11;12.10;99.90
20973;DHT22;10645;52.370;13.314;2024-02-26T13:25:37;12.10;99.90
20973;DHT22;10645;52.370;13.314;2024-02-26T13:28:08;12.00;99.90
20973;DHT22;10645;52.370;13.314;2024-02-26T13:30:35;11.90;99.90
20973;DHT22;10645;52.370;13.314;2024-02-26T13:33:12;12.00;99.90
20973;DHT22;10645;52.370;13.314;2024-02-26T13:35:39;12.00;99.90
20973;DHT22;10645;52.370;13.314;2024-02-26T13:38:06;12.00;99.90
20973;DHT22;10645;52.370;13.314;2024-02-26T13:40:33;12.00;99.90
20973;DHT22;10645;52.370;13.314;2024-02-26T13:43:00;12.00;99.90
20973;DHT22;10645;52.370;13.314;2024-02-26T13:45:26;11.90;99.90
20973;DHT22;10645;52.370;13.314;2024-02-26T13:48:08;11.90;99.90
20973;DHT22;10645;52.370;13.314;2024-02-26T13:50:36;11.80;99.90
20973;DHT22;10645;52.370;13.314;2024-02-26T13:53:02;11.70;99.90
20973;DHT22;10645;52.370;13.314;2024-02-26T13:55:28;11.70;99.90
20973;DHT22;10645;52.370;13.314;2024-02-26T13:57:56;11.70;99.90
20973;DHT22;10645;52.370;13.314;2024-02-26T14:00:23;11.60;99.90
20973;DHT22;10645;52.370;13.314;2024-02-26T14:02:50;11.60;99.90
20973;DHT22;10645;52.370;13.314;2024-02-26T14:05:17;11.60;99.90
20973;DHT22;10645;52.370;13.314;2024-02-26T14:07:43;11.70;99.90
20973;DHT22;10645;52.370;13.314;2024-02-26T14:10:12;11.80;99.90
20973;DHT22;10645;52.370;13.314;2024-02-26T14:12:38;11.80;99.90
20973;DHT22;10645;52.370;13.314;2024-02-26T14:15:08;11.70;99.90
20973;DHT22;10645;52.370;13.314;2024-02-26T14:17:35;11.70;99.90
20973;DHT22;10645;52.370;13.314;2024-02-26T14:20:02;11.60;99.90
20973;DHT22;10645;52.370;13.314;2024-02-26T14:22:29;11.70;99.90
20973;DHT22;10645;52.370;13.314;2024-02-26T14:24:57;11.70;99.90
20973;DHT22;10645;52.370;13.314;2024-02-26T14:27:23;11.70;99.90
20973;DHT22;10645;52.370;13.314;2024-02-26T14:29:49;11.70;99.90
20973;DHT22;10645;52.370;13.314;2024-02-26T14:32:16;11.60;99.90
20973;DHT22;10645;52.370;13.314;2024-02-26T14:34:43;11.60;99.90
20973;DHT22;10645;52.370;13.314;2024-02-26T14:37:09;11.40;99.90
20973;DHT22;10645;52.370;13.314;2024-02-26T14:39:37;11.30;99.90
20973;DHT22;10645;52.370;13.314;2024-02-26T14:42:03;11.20;99.90
20973;DHT22;10645;52.370;13.314;2024-02-26T14:44:29;11.10;99.90
20973;DHT22;10645;52.370;13.314;2024-02-26T14:46:55;11.10;99.90
20973;DHT22;10645;52.370;13.314;2024-02-26T14:49:21;11.10;99.90
20973;DHT22;10645;52.370;13.314;2024-02-26T14:51:47;11.00;99.90
20973;DHT22;10645;52.370;13.314;2024-02-26T14:54:20;11.00;99.90
20973;DHT22;10645;52.370;13.314;2024-02-26T14:56:54;11.00;99.90
20973;DHT22;10645;52.370;13.314;2024-02-26T14:59:20;11.00;99.90
20973;DHT22;10645;52.370;13.314;2024-02-26T15:01:46;10.90;99.90
20973;DHT22;10645;52.370;13.314;2024-02-26T15:04:12;10.90;99.90
20973;DHT22;10645;52.370;13.314;2024-02-26T15:06:39;10.90;99.90
20973;DHT22;10645;52.370;13.314;2024-02-26T15:09:11;10.80;99.90
20973;DHT22;10645;52.370;13.314;2024-02-26T15:11:40;10.70;99.90
20973;DHT22;10645;52.370;13.314;2024-02-26T15:14:07;10.70;99.90
20973;DHT22;10645;52.370;13.314;2024-02-26T15:16:33;10.60;99.90
20973;DHT22;10645;52.370;13.314;2024-02-26T15:18:59;10.60;99.90
20973;DHT22;10645;52.370;13.314;2024-02-26T15:21:25;10.50;99.90
20973;DHT22;10645;52.370;13.314;2024-02-26T15:23:51;10.50;99.90